TimeCDT,TemperatureF,Dew PointF,Humidity,Sea Level PressureIn,VisibilityMPH,Wind Direction,Wind SpeedMPH,Gust SpeedMPH,PrecipitationIn,Events,Conditions,WindDirDegrees,DateUTC
12:15 AM,46.4,32.0,57,30.07,10.0,North,8.1,-,N/A,,Clear,350,2012-10-29 05:15:00
12:35 AM,46.4,32.0,57,30.07,10.0,NNW,5.8,-,N/A,,Clear,340,2012-10-29 05:35:00
12:55 AM,44.6,32.0,61,30.07,10.0,NNW,5.8,-,N/A,,Clear,330,2012-10-29 05:55:00
1:35 AM,44.6,33.8,66,30.08,10.0,NNW,6.9,-,N/A,,Clear,340,2012-10-29 06:35:00
1:55 AM,44.6,33.8,66,30.08,10.0,North,6.9,-,N/A,,Clear,350,2012-10-29 06:55:00
2:15 AM,42.8,33.8,70,30.08,10.0,NNW,5.8,-,N/A,,Clear,340,2012-10-29 07:15:00
2:35 AM,42.8,33.8,70,30.08,10.0,North,8.1,-,N/A,Rain,Light Rain,350,2012-10-29 07:35:00
3:15 AM,42.8,33.8,70,30.07,10.0,North,-9999.0,-,N/A,,Clear,0,2012-10-29 08:15:00
3:35 AM,41.0,33.8,76,30.07,10.0,NNW,5.8,-,N/A,,Clear,330,2012-10-29 08:35:00
3:55 AM,41.0,33.8,76,30.07,10.0,NNW,5.8,-,N/A,Rain,Light Rain,330,2012-10-29 08:55:00
4:15 AM,39.2,33.8,81,30.07,10.0,NNW,5.8,-,N/A,Rain,Light Rain,330,2012-10-29 09:15:00
4:35 AM,39.2,33.8,81,30.08,10.0,NW,4.6,-,N/A,,Clear,310,2012-10-29 09:35:00
5:15 AM,37.4,32.0,81,30.08,10.0,NW,5.8,-,N/A,Rain,Light Rain,310,2012-10-29 10:15:00
5:55 AM,37.4,32.0,81,30.09,10.0,NW,6.9,-,N/A,Rain,Light Rain,320,2012-10-29 10:55:00
6:15 AM,37.4,32.0,81,30.09,10.0,NNW,6.9,-,N/A,Rain,Light Rain,330,2012-10-29 11:15:00
6:35 AM,37.4,32.0,81,30.09,10.0,NNW,8.1,-,N/A,,Clear,330,2012-10-29 11:35:00
6:55 AM,37.4,32.0,81,30.09,10.0,North,5.8,-,N/A,Rain,Light Rain,350,2012-10-29 11:55:00
7:15 AM,37.4,32.0,81,30.10,10.0,NNW,5.8,-,N/A,,Clear,330,2012-10-29 12:15:00
7:35 AM,37.4,32.0,81,30.10,10.0,North,-9999.0,-,N/A,,Clear,0,2012-10-29 12:35:00
7:55 AM,39.2,33.8,81,30.11,10.0,NNW,5.8,-,N/A,,Clear,340,2012-10-29 12:55:00
8:15 AM,39.2,33.8,81,30.12,10.0,NNW,8.1,-,N/A,,Clear,330,2012-10-29 13:15:00
8:35 AM,42.8,33.8,70,30.12,10.0,NNW,9.2,-,N/A,Rain,Light Rain,330,2012-10-29 13:35:00
9:15 AM,44.6,33.8,66,30.12,10.0,North,8.1,16.1,N/A,,Clear,360,2012-10-29 14:15:00
9:35 AM,46.4,33.8,62,30.11,10.0,North,12.7,19.6,N/A,,Clear,10,2012-10-29 14:35:00
9:55 AM,48.2,32.0,54,30.11,10.0,NNE,11.5,21.9,N/A,Rain,Light Rain,20,2012-10-29 14:55:00
10:15 AM,50.0,32.0,50,30.12,10.0,North,12.7,21.9,N/A,,Clear,350,2012-10-29 15:15:00
10:35 AM,50.0,32.0,50,30.12,10.0,North,13.8,20.7,N/A,,Clear,350,2012-10-29 15:35:00
10:55 AM,51.8,32.0,47,30.11,10.0,North,11.5,18.4,N/A,,Clear,10,2012-10-29 15:55:00
11:15 AM,53.6,32.0,44,30.11,10.0,North,10.4,23.0,N/A,,Clear,350,2012-10-29 16:15:00
11:35 AM,53.6,30.2,41,30.11,10.0,NNW,12.7,19.6,N/A,,Clear,340,2012-10-29 16:35:00
11:55 AM,53.6,30.2,41,30.10,10.0,NNW,12.7,20.7,N/A,,Clear,340,2012-10-29 16:55:00
12:15 PM,55.4,30.2,38,30.09,10.0,NNW,12.7,17.3,N/A,,Clear,340,2012-10-29 17:15:00
12:35 PM,55.4,32.0,41,30.08,10.0,NNW,9.2,19.6,N/A,,Clear,330,2012-10-29 17:35:00
12:55 PM,57.2,30.2,36,30.07,10.0,North,11.5,16.1,N/A,Rain,Light Rain,350,2012-10-29 17:55:00
1:15 PM,57.2,30.2,36,30.06,10.0,NNW,13.8,23.0,N/A,Rain,Light Rain,340,2012-10-29 18:15:00
1:35 PM,57.2,30.2,36,30.05,10.0,NNW,12.7,23.0,N/A,,Clear,330,2012-10-29 18:35:00
2:15 PM,59.0,30.2,34,30.03,10.0,NNW,13.8,21.9,N/A,,Clear,330,2012-10-29 19:15:00
2:35 PM,59.0,30.2,34,30.03,10.0,NNW,15.0,24.2,N/A,,Clear,330,2012-10-29 19:35:00
2:55 PM,60.8,30.2,31,30.01,10.0,NW,13.8,23.0,N/A,,Clear,310,2012-10-29 19:55:00
3:15 PM,60.8,28.4,29,30.01,10.0,North,12.7,23.0,N/A,Rain,Light Rain,350,2012-10-29 20:15:00
4:15 PM,57.2,28.4,33,30.01,10.0,NNW,17.3,23.0,N/A,,Clear,340,2012-10-29 21:15:00
4:35 PM,57.2,28.4,33,30.01,10.0,NNW,15.0,21.9,N/A,,Clear,340,2012-10-29 21:35:00
4:55 PM,57.2,28.4,33,30.00,10.0,NW,10.4,20.7,N/A,,Clear,320,2012-10-29 21:55:00
5:15 PM,55.4,26.6,33,30.00,10.0,NW,12.7,-,N/A,,Clear,310,2012-10-29 22:15:00
5:35 PM,55.4,26.6,33,30.00,10.0,NW,13.8,18.4,N/A,Rain,Light Rain,320,2012-10-29 22:35:00
6:15 PM,51.8,26.6,38,30.00,10.0,NW,10.4,-,N/A,Rain,Light Rain,320,2012-10-29 23:15:00
6:35 PM,50.0,26.6,40,30.00,10.0,NW,8.1,-,N/A,Rain,Light Rain,320,2012-10-29 23:35:00
6:55 PM,48.2,26.6,43,30.00,10.0,NW,8.1,-,N/A,Rain,Light Rain,310,2012-10-29 23:55:00
7:15 PM,46.4,28.4,50,30.00,10.0,WNW,8.1,-,N/A,Rain,Light Rain,300,2012-10-30 00:15:00
7:35 PM,44.6,28.4,53,30.00,10.0,WNW,6.9,-,N/A,Rain,Light Rain,300,2012-10-30 00:35:00
7:55 PM,42.8,30.2,61,30.00,10.0,WNW,5.8,-,N/A,Rain,Light Rain,300,2012-10-30 00:55:00
10:55 PM,41.0,30.2,65,30.00,10.0,WNW,8.1,-,N/A,,Clear,300,2012-10-30 03:55:00
11:35 PM,39.2,30.2,70,29.99,10.0,WNW,6.9,-,N/A,,Clear,300,2012-10-30 04:35:00
11:55 PM,39.2,30.2,70,29.99,10.0,WNW,6.9,-,N/A,Rain,Light Rain,300,2012-10-30 04:55:00